createdAt,value
2023-03-27T00:01:55.242Z,99293.21
2023-03-27T00:04:24.609Z,99294.66
2023-03-27T00:06:55.219Z,99291.48
2023-03-27T00:09:23.444Z,99292.84
2023-03-27T00:11:52.489Z,99290.08
2023-03-27T00:14:25.478Z,99290.45
2023-03-27T00:16:54.122Z,99286.64
2023-03-27T00:19:22.658Z,99285.36
2023-03-27T00:21:52.483Z,99287.94
2023-03-27T00:24:22.275Z,99287.95
2023-03-27T00:26:51.363Z,99292.62
2023-03-27T00:29:21.391Z,99297.02
2023-03-27T00:31:49.729Z,99299.16
2023-03-27T00:34:17.905Z,99294.45
2023-03-27T00:36:51.225Z,99291.75
2023-03-27T00:39:19.593Z,99294.55
2023-03-27T00:41:48.818Z,99295.02
2023-03-27T00:44:25.569Z,99290.02
2023-03-27T00:46:54.721Z,99285.85
2023-03-27T00:49:24.772Z,99283.80
2023-03-27T00:51:53.169Z,99285.60
2023-03-27T00:54:26.584Z,99285.36
2023-03-27T00:56:55.876Z,99284.73
2023-03-27T00:59:31.262Z,99281.38
2023-03-27T01:02:02.483Z,99283.13
2023-03-27T01:04:31.702Z,99287.06
2023-03-27T01:07:01.011Z,99295.33
2023-03-27T01:09:33.687Z,99296.79
2023-03-27T01:12:08.308Z,99296.19
2023-03-27T01:15:04.934Z,99298.46
2023-03-27T01:17:53.960Z,99300.73
2023-03-27T01:20:32.627Z,99300.90
2023-03-27T01:23:04.315Z,99304.33
2023-03-27T01:26:11.214Z,99301.73
2023-03-27T01:28:54.923Z,99298.27
2023-03-27T01:31:35.935Z,99297.33
2023-03-27T01:34:08.986Z,99295.71
2023-03-27T01:36:43.366Z,99298.45
2023-03-27T01:39:17.840Z,99300.54
2023-03-27T01:41:55.172Z,99298.84
2023-03-27T01:44:36.420Z,99297.96
2023-03-27T01:47:32.749Z,99296.59
2023-03-27T01:50:09.581Z,99297.52
2023-03-27T01:52:41.133Z,99299.45
2023-03-27T01:55:12.573Z,99295.71
2023-03-27T01:57:52.457Z,99291.88
2023-03-27T02:00:22.719Z,99288.29
2023-03-27T02:02:57.047Z,99287.60
2023-03-27T02:05:25.323Z,99288.41
2023-03-27T02:08:01.545Z,99288.73
2023-03-27T02:10:34.165Z,99289.20
2023-03-27T02:13:18.656Z,99286.67
2023-03-27T02:15:48.974Z,99290.65
2023-03-27T02:18:20.801Z,99304.32
2023-03-27T02:20:49.712Z,99308.08
2023-03-27T02:23:18.520Z,99311.34
2023-03-27T02:25:46.931Z,99317.39
2023-03-27T02:28:22.922Z,99316.20
2023-03-27T02:31:05.616Z,99310.79
2023-03-27T02:33:43.894Z,99320.60
2023-03-27T02:36:33.768Z,99324.86
2023-03-27T02:39:10.286Z,99324.23
2023-03-27T02:42:04.405Z,99326.67
2023-03-27T02:44:59.060Z,99322.44
2023-03-27T02:47:32.320Z,99326.91
2023-03-27T02:50:05.585Z,99329.08
2023-03-27T02:52:57.038Z,99339.61
2023-03-27T02:55:29.360Z,99339.88
2023-03-27T02:58:00.444Z,99345.30
2023-03-27T03:00:52.318Z,99347.27
2023-03-27T03:03:53.764Z,99350.36
2023-03-27T03:06:42.780Z,99359.42
2023-03-27T03:09:11.415Z,99363.59
2023-03-27T03:11:48.519Z,99365.02
2023-03-27T03:14:21.667Z,99373.08
2023-03-27T03:16:50.505Z,99375.02
2023-03-27T03:19:24.277Z,99378.20
2023-03-27T03:21:53.023Z,99376.16
2023-03-27T03:24:22.488Z,99376.31
2023-03-27T03:26:52.520Z,99378.95
2023-03-27T03:29:20.888Z,99373.02
2023-03-27T03:32:08.144Z,99373.75
2023-03-27T03:34:37.167Z,99368.80
2023-03-27T03:37:05.542Z,99369.02
2023-03-27T03:39:40.012Z,99369.08
2023-03-27T03:42:08.408Z,99370.61
2023-03-27T03:44:37.480Z,99371.33
2023-03-27T03:47:19.764Z,99372.88
2023-03-27T03:49:48.221Z,99375.73
2023-03-27T03:52:19.608Z,99379.30
2023-03-27T03:54:48.130Z,99375.63
2023-03-27T03:57:18.633Z,99375.02
2023-03-27T03:59:58.556Z,99371.36
2023-03-27T04:02:35.188Z,99372.48
2023-03-27T04:05:12.656Z,99375.14
2023-03-27T04:07:42.511Z,99379.10
2023-03-27T04:10:50.807Z,99381.90
2023-03-27T04:13:39.556Z,99387.11
2023-03-27T04:16:16.459Z,99384.09
2023-03-27T04:18:54.591Z,99388.09
2023-03-27T04:21:26.932Z,99391.58
2023-03-27T04:24:02.468Z,99390.91
2023-03-27T04:26:43.573Z,99392.77
2023-03-27T04:29:32.019Z,99394.48
2023-03-27T04:32:00.955Z,99394.08
2023-03-27T04:34:42.026Z,99399.68
2023-03-27T04:37:41.884Z,99400.28
2023-03-27T04:40:32.736Z,99399.08
2023-03-27T04:43:01.532Z,99401.21
2023-03-27T04:45:32.584Z,99402.77
2023-03-27T04:48:05.252Z,99398.51
2023-03-27T04:50:35.972Z,99398.38
2023-03-27T04:53:04.338Z,99393.05
2023-03-27T04:55:38.301Z,99390.59
2023-03-27T04:58:07.132Z,99391.27
2023-03-27T05:00:40.328Z,99389.87
2023-03-27T05:03:40.677Z,99390.73
2023-03-27T05:06:22.758Z,99391.39
2023-03-27T05:08:51.823Z,99399.61
2023-03-27T05:11:25.866Z,99401.48
2023-03-27T05:13:55.818Z,99398.95
2023-03-27T05:16:26.815Z,99401.91
2023-03-27T05:18:58.568Z,99408.83
2023-03-27T05:21:27.431Z,99411.71
2023-03-27T05:23:57.506Z,99408.17
2023-03-27T05:26:25.908Z,99404.09
2023-03-27T05:28:59.413Z,99405.66
2023-03-27T05:31:29.149Z,99407.41
2023-03-27T05:34:08.182Z,99410.73
2023-03-27T05:36:37.021Z,99415.88
2023-03-27T05:39:05.502Z,99418.37
2023-03-27T05:41:44.759Z,99415.88
2023-03-27T05:44:20.179Z,99416.46
2023-03-27T05:46:49.502Z,99415.95
2023-03-27T05:49:23.891Z,99417.95
2023-03-27T05:51:56.595Z,99419.77
2023-03-27T05:54:25.811Z,99417.94
2023-03-27T05:57:14.266Z,99417.00
2023-03-27T05:59:45.064Z,99412.14
2023-03-27T06:02:21.159Z,99414.15
2023-03-27T06:04:59.507Z,99418.48
2023-03-27T06:07:42.552Z,99418.58
2023-03-27T06:10:14.425Z,99422.06
2023-03-27T06:13:17.237Z,99422.66
2023-03-27T06:15:55.041Z,99423.04
2023-03-27T06:18:43.777Z,99417.88
2023-03-27T06:21:13.090Z,99417.06
2023-03-27T06:23:42.575Z,99417.23
2023-03-27T06:26:14.189Z,99413.15
2023-03-27T06:28:42.630Z,99413.23
2023-03-27T06:31:12.207Z,99413.45
2023-03-27T06:34:01.997Z,99412.52
2023-03-27T06:36:43.051Z,99418.46
2023-03-27T06:39:17.859Z,99417.58
2023-03-27T06:41:51.421Z,99419.25
2023-03-27T06:44:27.965Z,99418.16
2023-03-27T06:47:15.019Z,99416.67
2023-03-27T06:50:02.277Z,99416.35
2023-03-27T06:52:31.321Z,99409.86
2023-03-27T06:55:15.110Z,99407.17
2023-03-27T06:57:54.318Z,99405.08
2023-03-27T07:00:26.697Z,99407.92
2023-03-27T07:03:15.378Z,99407.83
2023-03-27T07:05:53.597Z,99414.41
2023-03-27T07:08:25.186Z,99417.44
2023-03-27T07:11:10.655Z,99416.30
2023-03-27T07:13:44.157Z,99413.09
2023-03-27T07:16:21.018Z,99411.95
2023-03-27T07:18:52.464Z,99409.27
2023-03-27T07:21:21.615Z,99411.06
2023-03-27T07:23:49.962Z,99406.55
2023-03-27T07:26:30.730Z,99409.14
2023-03-27T07:29:06.077Z,99406.33
2023-03-27T07:31:55.910Z,99406.85
2023-03-27T07:34:41.172Z,99409.14
2023-03-27T07:37:48.502Z,99411.36
2023-03-27T07:40:52.308Z,99416.15
2023-03-27T07:43:29.561Z,99413.95
2023-03-27T07:45:58.154Z,99414.52
2023-03-27T07:48:27.964Z,99416.09
2023-03-27T07:53:35.505Z,99416.27
2023-03-27T07:56:14.116Z,99412.48
2023-03-27T07:58:46.231Z,99410.81
2023-03-27T08:01:18.981Z,99414.32
2023-03-27T08:03:55.131Z,99415.25
2023-03-27T08:06:25.054Z,99414.60
2023-03-27T08:08:53.847Z,99414.73
2023-03-27T08:11:32.430Z,99413.56
2023-03-27T08:14:01.240Z,99411.50
2023-03-27T08:16:30.297Z,99404.35
2023-03-27T08:19:01.524Z,99404.16
2023-03-27T08:21:32.207Z,99408.46
2023-03-27T08:24:02.264Z,99403.21
2023-03-27T08:26:55.318Z,99401.30
2023-03-27T08:29:24.541Z,99397.52
2023-03-27T08:31:52.986Z,99404.84
2023-03-27T08:34:22.624Z,99404.45
2023-03-27T08:36:54.210Z,99401.64
2023-03-27T08:39:23.044Z,99398.95
2023-03-27T08:42:01.071Z,99395.15
2023-03-27T08:44:37.033Z,99396.94
2023-03-27T08:47:17.662Z,99396.75
2023-03-27T08:49:57.026Z,99395.39
2023-03-27T08:52:32.070Z,99402.52
2023-03-27T08:55:15.504Z,99397.88
2023-03-27T08:57:53.399Z,99394.44
2023-03-27T09:00:29.434Z,99386.58
2023-03-27T09:03:29.185Z,99386.02
2023-03-27T09:06:27.856Z,99384.37
2023-03-27T09:09:09.697Z,99380.67
2023-03-27T09:11:44.014Z,99375.64
2023-03-27T09:14:26.303Z,99369.50
2023-03-27T09:16:55.065Z,99373.52
2023-03-27T09:19:45.099Z,99373.37
2023-03-27T09:22:25.904Z,99372.80
2023-03-27T09:25:21.701Z,99372.27
2023-03-27T09:28:24.156Z,99369.93
2023-03-27T09:31:22.659Z,99369.40
2023-03-27T09:33:51.754Z,99375.92
2023-03-27T09:36:21.993Z,99378.81
2023-03-27T09:39:02.279Z,99377.09
2023-03-27T09:42:10.102Z,99371.81
2023-03-27T09:44:41.476Z,99369.39
2023-03-27T09:47:19.805Z,99369.43
2023-03-27T09:50:02.201Z,99364.17
2023-03-27T09:52:45.189Z,99359.51
2023-03-27T09:55:54.320Z,99355.29
2023-03-27T09:58:27.982Z,99354.37
2023-03-27T10:01:34.726Z,99351.70
2023-03-27T10:04:24.222Z,99353.87
2023-03-27T10:07:08.450Z,99354.42
2023-03-27T10:10:20.209Z,99356.59
2023-03-27T10:13:29.441Z,99351.21
2023-03-27T10:16:04.692Z,99353.82
2023-03-27T10:18:43.761Z,99352.14
2023-03-27T10:21:34.072Z,99353.73
2023-03-27T10:24:05.955Z,99352.45
2023-03-27T10:26:57.631Z,99346.02
2023-03-27T10:29:31.400Z,99350.56
2023-03-27T10:32:00.726Z,99350.25
2023-03-27T10:34:43.678Z,99351.77
2023-03-27T10:37:28.670Z,99354.94
2023-03-27T10:40:18.064Z,99356.03
2023-03-27T10:42:48.688Z,99351.81
2023-03-27T10:45:21.157Z,99349.34
2023-03-27T10:47:58.333Z,99347.79
2023-03-27T10:50:46.034Z,99346.65
2023-03-27T10:53:22.036Z,99340.65
2023-03-27T10:56:26.042Z,99340.71
2023-03-27T10:58:58.552Z,99340.38
2023-03-27T11:01:52.791Z,99339.89
2023-03-27T11:04:23.912Z,99336.71
2023-03-27T11:06:57.472Z,99333.20
2023-03-27T11:09:34.579Z,99326.49
2023-03-27T11:12:10.690Z,99324.40
2023-03-27T11:14:51.437Z,99325.28
2023-03-27T11:17:29.193Z,99324.66
2023-03-27T11:20:21.206Z,99317.30
2023-03-27T11:23:24.765Z,99318.02
2023-03-27T11:26:13.110Z,99316.05
2023-03-27T11:28:53.177Z,99315.86
2023-03-27T11:31:38.624Z,99312.98
2023-03-27T11:34:28.788Z,99312.35
2023-03-27T11:37:07.811Z,99307.95
2023-03-27T11:39:46.932Z,99308.74
2023-03-27T11:42:21.468Z,99301.73
2023-03-27T11:44:51.438Z,99298.35
2023-03-27T11:48:00.511Z,99299.31
2023-03-27T11:50:33.691Z,99294.10
2023-03-27T11:53:08.279Z,99296.08
2023-03-27T11:56:06.970Z,99299.83
2023-03-27T11:58:41.309Z,99300.59
2023-03-27T12:01:43.485Z,99297.02
2023-03-27T12:04:30.429Z,99297.59
2023-03-27T12:07:35.385Z,99295.64
2023-03-27T12:10:25.335Z,99295.18
2023-03-27T12:13:40.612Z,99286.73
2023-03-27T12:16:48.649Z,99286.61
2023-03-27T12:19:39.112Z,99288.17
2023-03-27T12:22:24.708Z,99289.73
2023-03-27T12:25:24.350Z,99290.88
2023-03-27T12:28:32.269Z,99294.91
2023-03-27T12:31:39.567Z,99298.92
2023-03-27T12:34:39.766Z,99289.97
2023-03-27T12:37:10.907Z,99282.27
2023-03-27T12:39:53.843Z,99285.38
2023-03-27T12:42:43.946Z,99281.05
2023-03-27T12:45:24.763Z,99281.81
2023-03-27T12:48:11.022Z,99281.36
2023-03-27T12:50:55.146Z,99280.23
2023-03-27T12:53:29.841Z,99273.67
2023-03-27T12:56:17.544Z,99271.59
2023-03-27T12:58:48.935Z,99270.56
2023-03-27T13:01:52.456Z,99270.38
2023-03-27T13:04:54.190Z,99269.51
2023-03-27T13:07:54.249Z,99268.10
2023-03-27T13:10:59.276Z,99264.42
2023-03-27T13:14:05.004Z,99261.30
2023-03-27T13:16:46.116Z,99256.11
2023-03-27T13:19:26.589Z,99251.63
2023-03-27T13:22:28.294Z,99248.90
2023-03-27T13:25:12.688Z,99250.48
2023-03-27T13:27:47.915Z,99248.50
2023-03-27T13:30:39.833Z,99241.95
2023-03-27T13:33:14.180Z,99250.77
2023-03-27T13:35:58.129Z,99237.31
2023-03-27T13:38:52.025Z,99240.19
2023-03-27T13:41:48.789Z,99233.10
2023-03-27T13:44:29.230Z,99232.67
2023-03-27T13:47:34.404Z,99234.65
2023-03-27T13:50:24.561Z,99232.89
2023-03-27T13:53:32.696Z,99230.86
2023-03-27T13:56:53.172Z,99227.65
2023-03-27T13:59:41.799Z,99223.89
2023-03-27T14:02:48.404Z,99220.36
2023-03-27T14:05:36.926Z,99220.91
2023-03-27T14:08:24.451Z,99213.71
2023-03-27T14:11:18.388Z,99207.30
2023-03-27T14:14:11.802Z,99207.48
2023-03-27T14:16:50.641Z,99205.80
2023-03-27T14:19:47.192Z,99206.21
2023-03-27T14:22:26.505Z,99203.70
2023-03-27T14:25:02.987Z,99200.79
2023-03-27T14:27:43.403Z,99202.90
2023-03-27T14:30:15.883Z,99204.21
2023-03-27T14:32:50.108Z,99200.86
2023-03-27T14:35:36.530Z,99198.36
2023-03-27T14:38:24.958Z,99199.65
2023-03-27T14:40:58.994Z,99199.38
2023-03-27T14:43:54.206Z,99196.92
2023-03-27T14:46:26.713Z,99196.69
2023-03-27T14:48:58.526Z,99194.63
2023-03-27T14:51:37.411Z,99194.39
2023-03-27T14:54:10.767Z,99192.98
2023-03-27T14:57:06.211Z,99191.52
2023-03-27T14:59:39.520Z,99194.30
2023-03-27T15:02:34.898Z,99187.55
2023-03-27T15:05:12.320Z,99188.62
2023-03-27T15:07:44.008Z,99189.17
2023-03-27T15:10:32.048Z,99185.65
2023-03-27T15:13:19.243Z,99189.23
2023-03-27T15:15:53.599Z,99184.27
2023-03-27T15:18:50.566Z,99184.60
2023-03-27T15:21:39.140Z,99180.64
2023-03-27T15:24:10.938Z,99178.58
2023-03-27T15:26:40.740Z,99178.55
2023-03-27T15:29:25.276Z,99176.89
2023-03-27T15:31:53.701Z,99173.98
2023-03-27T15:34:34.340Z,99172.59
2023-03-27T15:37:07.600Z,99173.73
2023-03-27T15:39:37.813Z,99174.02
2023-03-27T15:42:11.978Z,99167.50
2023-03-27T15:44:40.303Z,99166.22
2023-03-27T15:47:25.869Z,99166.68
2023-03-27T15:50:28.129Z,99166.36
2023-03-27T15:52:58.291Z,99169.15
2023-03-27T15:55:34.245Z,99166.66
2023-03-27T15:58:25.294Z,99165.27
2023-03-27T16:01:01.540Z,99166.70
2023-03-27T16:03:34.533Z,99166.70
2023-03-27T16:06:09.113Z,99168.77
2023-03-27T16:08:38.796Z,99163.55
2023-03-27T16:11:07.203Z,99164.45
2023-03-27T16:13:37.375Z,99163.61
2023-03-27T16:16:38.330Z,99166.13
2023-03-27T16:19:13.045Z,99169.79
2023-03-27T16:21:55.821Z,99168.63
2023-03-27T16:24:24.125Z,99169.77
2023-03-27T16:26:54.808Z,99171.02
2023-03-27T16:29:23.352Z,99172.67
2023-03-27T16:31:52.183Z,99171.12
2023-03-27T16:34:23.657Z,99166.17
2023-03-27T16:36:52.801Z,99168.08
2023-03-27T16:39:21.982Z,99167.69
2023-03-27T16:41:50.678Z,99162.80
2023-03-27T16:44:22.354Z,99163.03
2023-03-27T16:46:50.643Z,99168.42
2023-03-27T16:49:18.862Z,99172.66
2023-03-27T16:51:48.034Z,99177.16
2023-03-27T16:54:16.394Z,99175.45
2023-03-27T16:56:44.917Z,99181.38
2023-03-27T16:59:13.272Z,99178.94
2023-03-27T17:01:41.648Z,99176.45
2023-03-27T17:04:10.402Z,99176.42
2023-03-27T17:06:40.258Z,99178.21
2023-03-27T17:09:08.773Z,99177.06
2023-03-27T17:11:37.527Z,99182.09
2023-03-27T17:14:06.042Z,99180.66
2023-03-27T17:16:34.577Z,99184.88
2023-03-27T17:19:07.596Z,99186.18
2023-03-27T17:21:37.167Z,99184.24
2023-03-27T17:24:05.535Z,99186.98
2023-03-27T17:26:36.677Z,99183.94
2023-03-27T17:29:10.408Z,99184.73
2023-03-27T17:31:39.112Z,99188.48
2023-03-27T17:34:07.979Z,99186.92
2023-03-27T17:36:43.328Z,99184.72
2023-03-27T17:39:16.100Z,99183.10
2023-03-27T17:41:45.178Z,99182.95
2023-03-27T17:44:14.443Z,99185.55
2023-03-27T17:46:43.630Z,99187.90
2023-03-27T17:49:12.103Z,99183.71
2023-03-27T17:51:41.178Z,99189.92
2023-03-27T17:54:09.824Z,99184.54
2023-03-27T17:56:38.439Z,99187.19
2023-03-27T17:59:06.773Z,99184.48
2023-03-27T18:01:40.236Z,99185.70
2023-03-27T18:04:08.904Z,99182.39
2023-03-27T18:06:38.218Z,99177.79
2023-03-27T18:09:07.577Z,99177.25
2023-03-27T18:11:42.316Z,99181.27
2023-03-27T18:14:11.107Z,99182.90
2023-03-27T18:16:41.791Z,99183.82
2023-03-27T18:19:12.256Z,99183.23
2023-03-27T18:21:40.732Z,99181.73
2023-03-27T18:24:09.112Z,99182.45
2023-03-27T18:26:37.927Z,99175.39
2023-03-27T18:29:08.256Z,99175.23
2023-03-27T18:31:37.149Z,99174.59
2023-03-27T18:34:06.161Z,99165.72
2023-03-27T18:36:36.100Z,99167.19
2023-03-27T18:39:06.675Z,99173.27
2023-03-27T18:41:39.824Z,99173.41
2023-03-27T18:44:12.520Z,99176.53
2023-03-27T18:46:42.124Z,99174.43
2023-03-27T18:49:23.727Z,99178.61
2023-03-27T18:51:57.678Z,99188.56
2023-03-27T18:54:26.296Z,99202.88
2023-03-27T18:56:55.320Z,99218.73
2023-03-27T18:59:24.268Z,99218.42
2023-03-27T19:01:54.081Z,99192.97
2023-03-27T19:04:22.818Z,99177.66
2023-03-27T19:06:53.566Z,99172.77
2023-03-27T19:09:31.167Z,99160.16
2023-03-27T19:12:09.985Z,99158.13
2023-03-27T19:15:00.434Z,99153.02
2023-03-27T19:17:42.028Z,99150.11
2023-03-27T19:20:22.061Z,99145.77
2023-03-27T19:22:52.040Z,99143.81
2023-03-27T19:25:36.129Z,99143.95
2023-03-27T19:28:05.343Z,99139.08
2023-03-27T19:30:39.369Z,99137.32
2023-03-27T19:33:08.035Z,99137.39
2023-03-27T19:35:36.455Z,99138.56
2023-03-27T19:38:05.720Z,99133.48
2023-03-27T19:40:37.585Z,99130.58
2023-03-27T19:43:06.471Z,99127.69
2023-03-27T19:45:35.752Z,99129.70
2023-03-27T19:48:07.877Z,99131.39
2023-03-27T19:50:37.382Z,99127.70
2023-03-27T19:53:21.053Z,99128.02
2023-03-27T19:55:49.496Z,99122.91
2023-03-27T19:58:18.270Z,99121.41
2023-03-27T20:00:55.945Z,99123.55
2023-03-27T20:03:25.157Z,99118.73
2023-03-27T20:06:06.996Z,99120.19
2023-03-27T20:08:39.651Z,99115.59
2023-03-27T20:11:08.713Z,99113.77
2023-03-27T20:13:49.049Z,99110.17
2023-03-27T20:16:26.471Z,99108.80
2023-03-27T20:19:03.760Z,99103.02
2023-03-27T20:21:35.253Z,99100.52
2023-03-27T20:24:10.245Z,99099.07
2023-03-27T20:26:41.875Z,99092.25
2023-03-27T20:29:17.578Z,99092.38
2023-03-27T20:31:46.460Z,99096.70
2023-03-27T20:34:15.103Z,99092.42
2023-03-27T20:36:43.962Z,99088.29
2023-03-27T20:39:44.741Z,99092.48
2023-03-27T20:42:17.328Z,99097.79
2023-03-27T20:44:46.146Z,99091.95
2023-03-27T20:47:15.220Z,99089.50
2023-03-27T20:49:47.403Z,99085.00
2023-03-27T20:52:17.449Z,99085.52
2023-03-27T20:54:45.711Z,99080.84
2023-03-27T20:57:15.287Z,99078.98
2023-03-27T20:59:47.439Z,99078.81
2023-03-27T21:02:17.735Z,99075.97
2023-03-27T21:04:47.588Z,99074.03
2023-03-27T21:07:16.295Z,99068.71
2023-03-27T21:09:46.784Z,99066.17
2023-03-27T21:12:16.293Z,99064.90
2023-03-27T21:14:44.556Z,99056.45
2023-03-27T21:17:13.445Z,99056.63
2023-03-27T21:19:42.756Z,99051.48
2023-03-27T21:22:15.032Z,99052.30
2023-03-27T21:24:44.597Z,99052.78
2023-03-27T21:27:12.851Z,99050.73
2023-03-27T21:29:43.610Z,99053.45
2023-03-27T21:32:12.283Z,99051.48
2023-03-27T21:34:40.633Z,99047.90
2023-03-27T21:37:08.866Z,99042.23
2023-03-27T21:39:37.185Z,99043.36
2023-03-27T21:42:10.110Z,99042.63
2023-03-27T21:44:39.615Z,99043.48
2023-03-27T21:47:07.902Z,99044.86
2023-03-27T21:49:36.877Z,99043.04
2023-03-27T21:52:06.243Z,99042.44
2023-03-27T21:54:37.423Z,99044.77
2023-03-27T21:57:05.772Z,99040.77
2023-03-27T21:59:34.887Z,99038.70
2023-03-27T22:02:03.645Z,99037.05
2023-03-27T22:04:32.439Z,99037.08
2023-03-27T22:07:02.240Z,99038.06
2023-03-27T22:09:31.115Z,99040.85
2023-03-27T22:11:59.732Z,99041.99
2023-03-27T22:14:31.898Z,99039.23
2023-03-27T22:17:01.109Z,99037.15
2023-03-27T22:19:29.641Z,99033.48
2023-03-27T22:22:01.835Z,99035.68
2023-03-27T22:24:30.426Z,99035.83
2023-03-27T22:26:58.665Z,99029.89
2023-03-27T22:29:28.107Z,99032.07
2023-03-27T22:31:56.217Z,99034.67
2023-03-27T22:34:24.421Z,99031.34
2023-03-27T22:36:52.804Z,99030.76
2023-03-27T22:39:21.440Z,99027.44
2023-03-27T22:41:52.092Z,99025.67
2023-03-27T22:44:20.294Z,99024.13
2023-03-27T22:46:48.641Z,99022.52
2023-03-27T22:49:17.847Z,99014.90
2023-03-27T22:51:46.179Z,99005.69
2023-03-27T22:54:19.355Z,99005.54
2023-03-27T22:56:48.098Z,99012.19
2023-03-27T22:59:22.726Z,99011.34
2023-03-27T23:01:51.800Z,99012.20
2023-03-27T23:04:20.033Z,99007.27
2023-03-27T23:07:45.383Z,99012.08
2023-03-27T23:10:19.210Z,99010.63
2023-03-27T23:12:47.280Z,99006.20
2023-03-27T23:15:15.501Z,99003.58
2023-03-27T23:17:43.837Z,99003.09
2023-03-27T23:20:13.109Z,99001.06
2023-03-27T23:22:43.185Z,99003.71
2023-03-27T23:25:11.338Z,98997.27
2023-03-27T23:27:41.512Z,98993.74
2023-03-27T23:30:10.883Z,98995.05
2023-03-27T23:32:40.677Z,98994.05
2023-03-27T23:35:11.459Z,98992.63
2023-03-27T23:38:30.554Z,98989.10
2023-03-27T23:40:59.845Z,98987.82
2023-03-27T23:43:28.951Z,98986.71
2023-03-27T23:46:05.008Z,98983.33
2023-03-27T23:48:33.195Z,98983.84
2023-03-27T23:51:01.627Z,98980.30
2023-03-27T23:53:33.368Z,98978.73
2023-03-27T23:56:01.764Z,98972.23
2023-03-27T23:58:32.900Z,98970.38
